Check out our new PWSWeather beta!
PWSweather.com
Personal Weather Stations
Station Observations
MICROSHIP
Friday Harbor, Friday Harbor, WA 98250

Friday HarborFriday Harbor, WA 98250

Lat: 48.538, Lon: -123.016

Elevation: 16

Station Type: Ambient Weather WS-1001-WIFI ObserverIP

https://microship.com/

High Low Average
Temperature 47.8°F8.8°C 41.0°F5.0°C 44.6°F7.0°C
Dew Point 8.5°F-13.1°C -52.2°F-46.8°C -3.0°F-19.4°C
Winds 18.3 mph 29.5 kmh 2.6 mph 4.2 kmh 11.0 mph SE17.7 kmh SE
Wind Gusts 40.0 mph64.4 kmh 9.8 mph15.8 kmh 21.0 mph33.8 kmh
Humidity 20% 1% 14%
Pressure 30.42 in1030.1 mb 30.15 in1021.0 mb -
Precipitation 0.00 in0.0 mm - -
Hour Temp Dew Point Humidity Winds Wind Gusts Pressure Precip Precip Rate Daily Precip Total
01:10 AM 41.9°F5.5°C -51.9°F-46.6°C 1% 11.2 mph E18.0 kmh E 12.3 mph19.8 kmh 30.22 in1023.4 mb 0.00 in0.0 mm 0.00 in0.0 mm 0.00 in0.0 mm
01:25 AM 41.7°F5.4°C -50.2°F-45.7°C 1% 15.5 mph ESE24.9 kmh ESE 27.5 mph44.3 kmh 30.21 in1023.0 mb 0.00 in0.0 mm 0.00 in0.0 mm 0.00 in0.0 mm
01:30 AM 41.7°F5.4°C -45.4°F-43.0°C 2% 15.9 mph E25.6 kmh E 27.5 mph44.3 kmh 30.21 in1023.0 mb 0.00 in0.0 mm 0.00 in0.0 mm 0.00 in0.0 mm
01:35 AM 41.7°F5.4°C -51.0°F-46.1°C 1% 16.6 mph ESE26.7 kmh ESE 24.8 mph39.9 kmh 30.21 in1023.0 mb 0.00 in0.0 mm 0.00 in0.0 mm 0.00 in0.0 mm
01:40 AM 41.6°F5.3°C -49.3°F-45.2°C 1% 14.8 mph SE23.8 kmh SE 24.8 mph39.9 kmh 30.21 in1023.0 mb 0.00 in0.0 mm 0.00 in0.0 mm 0.00 in0.0 mm
01:45 AM 41.5°F5.3°C -52.2°F-46.8°C 1% 13.4 mph ESE21.6 kmh ESE 17.4 mph28.0 kmh 30.22 in1023.4 mb 0.00 in0.0 mm 0.00 in0.0 mm 0.00 in0.0 mm
01:50 AM 41.5°F5.3°C -51.1°F-46.2°C 1% 14.8 mph ESE23.8 kmh ESE 22.4 mph36.0 kmh 30.22 in1023.4 mb 0.00 in0.0 mm 0.00 in0.0 mm 0.00 in0.0 mm
01:55 AM 41.5°F5.3°C -48.5°F-44.7°C 1% 16.6 mph ESE26.7 kmh ESE 24.8 mph39.9 kmh 30.21 in1023.0 mb 0.00 in0.0 mm 0.00 in0.0 mm 0.00 in0.0 mm
02:00 AM 41.5°F5.3°C -44.8°F-42.7°C 2% 11.0 mph SE17.7 kmh SE 17.4 mph28.0 kmh 30.21 in1023.0 mb 0.00 in0.0 mm 0.00 in0.0 mm 0.00 in0.0 mm
02:05 AM 41.5°F5.3°C -43.9°F-42.2°C 2% 10.5 mph SE16.9 kmh SE 19.9 mph32.0 kmh 30.21 in1023.0 mb 0.00 in0.0 mm 0.00 in0.0 mm 0.00 in0.0 mm
02:10 AM 41.5°F5.3°C -41.8°F-41.0°C 2% 11.1 mph SE17.9 kmh SE 19.9 mph32.0 kmh 30.21 in1023.0 mb 0.00 in0.0 mm 0.00 in0.0 mm 0.00 in0.0 mm
02:15 AM 41.5°F5.3°C -44.9°F-42.7°C 2% 15.5 mph SE24.9 kmh SE 27.5 mph44.3 kmh 30.20 in1022.7 mb 0.00 in0.0 mm 0.00 in0.0 mm 0.00 in0.0 mm
02:20 AM 41.5°F5.3°C -44.0°F-42.2°C 2% 9.5 mph SE15.3 kmh SE 17.4 mph28.0 kmh 30.20 in1022.7 mb 0.00 in0.0 mm 0.00 in0.0 mm 0.00 in0.0 mm
02:50 AM 41.7°F5.4°C -49.4°F-45.2°C 1% 11.3 mph ESE18.2 kmh ESE 19.9 mph32.0 kmh 30.20 in1022.7 mb 0.00 in0.0 mm 0.00 in0.0 mm 0.00 in0.0 mm
02:55 AM 41.7°F5.4°C -45.3°F-42.9°C 2% 10.2 mph SE16.4 kmh SE 19.9 mph32.0 kmh 30.20 in1022.7 mb 0.00 in0.0 mm 0.00 in0.0 mm 0.00 in0.0 mm
03:00 AM 41.7°F5.4°C -43.6°F-42.0°C 2% 9.7 mph SE15.6 kmh SE 19.9 mph32.0 kmh 30.21 in1023.0 mb 0.00 in0.0 mm 0.00 in0.0 mm 0.00 in0.0 mm
03:05 AM 41.7°F5.4°C -36.2°F-37.9°C 3% 7.5 mph SE12.1 kmh SE 12.3 mph19.8 kmh 30.20 in1022.7 mb 0.00 in0.0 mm 0.00 in0.0 mm 0.00 in0.0 mm
03:10 AM 41.7°F5.4°C -29.4°F-34.1°C 4% 11.5 mph SE18.5 kmh SE 22.4 mph36.0 kmh 30.20 in1022.7 mb 0.00 in0.0 mm 0.00 in0.0 mm 0.00 in0.0 mm
03:15 AM 41.7°F5.4°C -22.5°F-30.3°C 6% 16.3 mph SE26.2 kmh SE 27.5 mph44.3 kmh 30.19 in1022.4 mb 0.00 in0.0 mm 0.00 in0.0 mm 0.00 in0.0 mm
03:20 AM 41.6°F5.3°C -19.2°F-28.4°C 7% 17.5 mph ESE28.2 kmh ESE 30.0 mph48.3 kmh 30.19 in1022.4 mb 0.00 in0.0 mm 0.00 in0.0 mm 0.00 in0.0 mm
03:25 AM 41.5°F5.3°C -15.4°F-26.3°C 8% 18.3 mph SE29.5 kmh SE 30.0 mph48.3 kmh 30.18 in1022.0 mb 0.00 in0.0 mm 0.00 in0.0 mm 0.00 in0.0 mm
03:30 AM 41.5°F5.3°C -15.5°F-26.4°C 8% 15.1 mph SE24.3 kmh SE 30.0 mph48.3 kmh 30.18 in1022.0 mb 0.00 in0.0 mm 0.00 in0.0 mm 0.00 in0.0 mm
03:35 AM 41.5°F5.3°C -15.3°F-26.3°C 8% 11.3 mph SE18.2 kmh SE 22.4 mph36.0 kmh 30.18 in1022.0 mb 0.00 in0.0 mm 0.00 in0.0 mm 0.00 in0.0 mm
03:40 AM 41.4°F5.2°C -13.8°F-25.4°C 9% 12.1 mph SE19.5 kmh SE 24.8 mph39.9 kmh 30.17 in1021.7 mb 0.00 in0.0 mm 0.00 in0.0 mm 0.00 in0.0 mm
03:45 AM 41.4°F5.2°C -12.3°F-24.6°C 9% 14.2 mph SE22.9 kmh SE 27.5 mph44.3 kmh 30.17 in1021.7 mb 0.00 in0.0 mm 0.00 in0.0 mm 0.00 in0.0 mm
03:50 AM 41.3°F5.2°C -10.4°F-23.6°C 10% 15.6 mph SE25.1 kmh SE 27.5 mph44.3 kmh 30.16 in1021.3 mb 0.00 in0.0 mm 0.00 in0.0 mm 0.00 in0.0 mm
03:55 AM 41.2°F5.1°C -8.1°F-22.3°C 12% 14.1 mph SE22.7 kmh SE 27.5 mph44.3 kmh 30.16 in1021.3 mb 0.00 in0.0 mm 0.00 in0.0 mm 0.00 in0.0 mm
04:00 AM 41.2°F5.1°C -8.1°F-22.3°C 12% 13.6 mph SE21.9 kmh SE 30.0 mph48.3 kmh 30.16 in1021.3 mb 0.00 in0.0 mm 0.00 in0.0 mm 0.00 in0.0 mm
04:05 AM 41.2°F5.1°C -10.4°F-23.6°C 10% 17.0 mph SE27.4 kmh SE 34.9 mph56.2 kmh 30.17 in1021.7 mb 0.00 in0.0 mm 0.00 in0.0 mm 0.00 in0.0 mm
04:10 AM 41.2°F5.1°C -10.3°F-23.5°C 10% 16.7 mph SE26.9 kmh SE 40.0 mph64.4 kmh 30.16 in1021.3 mb 0.00 in0.0 mm 0.00 in0.0 mm 0.00 in0.0 mm
04:15 AM 41.2°F5.1°C -9.7°F-23.2°C 11% 16.1 mph SE25.9 kmh SE 30.0 mph48.3 kmh 30.16 in1021.3 mb 0.00 in0.0 mm 0.00 in0.0 mm 0.00 in0.0 mm
04:20 AM 41.2°F5.1°C -9.3°F-22.9°C 11% 15.5 mph SE24.9 kmh SE 30.0 mph48.3 kmh 30.17 in1021.7 mb 0.00 in0.0 mm 0.00 in0.0 mm 0.00 in0.0 mm
04:25 AM 41.2°F5.1°C -8.2°F-22.3°C 12% 17.3 mph SE27.8 kmh SE 32.4 mph52.1 kmh 30.17 in1021.7 mb 0.00 in0.0 mm 0.00 in0.0 mm 0.00 in0.0 mm
04:30 AM 41.2°F5.1°C -7.1°F-21.7°C 12% 15.5 mph SE24.9 kmh SE 24.8 mph39.9 kmh 30.16 in1021.3 mb 0.00 in0.0 mm 0.00 in0.0 mm 0.00 in0.0 mm
04:35 AM 41.2°F5.1°C -6.4°F-21.3°C 13% 16.3 mph SE26.2 kmh SE 30.0 mph48.3 kmh 30.16 in1021.3 mb 0.00 in0.0 mm 0.00 in0.0 mm 0.00 in0.0 mm
04:40 AM 41.2°F5.1°C -6.0°F-21.1°C 13% 15.4 mph SE24.8 kmh SE 34.9 mph56.2 kmh 30.16 in1021.3 mb 0.00 in0.0 mm 0.00 in0.0 mm 0.00 in0.0 mm
04:45 AM 41.1°F5.1°C -5.9°F-21.1°C 13% 15.5 mph SE24.9 kmh SE 30.0 mph48.3 kmh 30.16 in1021.3 mb 0.00 in0.0 mm 0.00 in0.0 mm 0.00 in0.0 mm
04:50 AM 41.0°F5.0°C -6.0°F-21.1°C 13% 16.2 mph SE26.1 kmh SE 27.5 mph44.3 kmh 30.16 in1021.3 mb 0.00 in0.0 mm 0.00 in0.0 mm 0.00 in0.0 mm
04:55 AM 41.0°F5.0°C -6.3°F-21.3°C 13% 17.6 mph SE28.3 kmh SE 30.0 mph48.3 kmh 30.16 in1021.3 mb 0.00 in0.0 mm 0.00 in0.0 mm 0.00 in0.0 mm
05:00 AM 41.0°F5.0°C -5.7°F-20.9°C 13% 15.9 mph SE25.6 kmh SE 30.0 mph48.3 kmh 30.15 in1021.0 mb 0.00 in0.0 mm 0.00 in0.0 mm 0.00 in0.0 mm
05:05 AM 41.0°F5.0°C -6.0°F-21.1°C 13% 15.5 mph SE24.9 kmh SE 37.4 mph60.2 kmh 30.16 in1021.3 mb 0.00 in0.0 mm 0.00 in0.0 mm 0.00 in0.0 mm
05:10 AM 41.1°F5.1°C -5.7°F-20.9°C 13% 15.1 mph SE24.3 kmh SE 32.4 mph52.1 kmh 30.16 in1021.3 mb 0.00 in0.0 mm 0.00 in0.0 mm 0.00 in0.0 mm
05:15 AM 41.2°F5.1°C -5.9°F-21.1°C 13% 16.8 mph SE27.0 kmh SE 32.4 mph52.1 kmh 30.16 in1021.3 mb 0.00 in0.0 mm 0.00 in0.0 mm 0.00 in0.0 mm
05:20 AM 41.2°F5.1°C -4.8°F-20.4°C 14% 14.1 mph ESE22.7 kmh ESE 30.0 mph48.3 kmh 30.15 in1021.0 mb 0.00 in0.0 mm 0.00 in0.0 mm 0.00 in0.0 mm
05:25 AM 41.2°F5.1°C -4.3°F-20.2°C 14% 14.1 mph SE22.7 kmh SE 24.8 mph39.9 kmh 30.16 in1021.3 mb 0.00 in0.0 mm 0.00 in0.0 mm 0.00 in0.0 mm
05:30 AM 41.2°F5.1°C -4.0°F-20.0°C 14% 13.3 mph SE21.4 kmh SE 27.5 mph44.3 kmh 30.16 in1021.3 mb 0.00 in0.0 mm 0.00 in0.0 mm 0.00 in0.0 mm
05:35 AM 41.2°F5.1°C -3.0°F-19.4°C 15% 14.6 mph SE23.5 kmh SE 24.8 mph39.9 kmh 30.16 in1021.3 mb 0.00 in0.0 mm 0.00 in0.0 mm 0.00 in0.0 mm
05:40 AM 41.2°F5.1°C -3.0°F-19.4°C 15% 14.9 mph ESE24.0 kmh ESE 27.5 mph44.3 kmh 30.16 in1021.3 mb 0.00 in0.0 mm 0.00 in0.0 mm 0.00 in0.0 mm
05:45 AM 41.2°F5.1°C -2.8°F-19.3°C 15% 14.7 mph SE23.7 kmh SE 34.9 mph56.2 kmh 30.16 in1021.3 mb 0.00 in0.0 mm 0.00 in0.0 mm 0.00 in0.0 mm
05:50 AM 41.2°F5.1°C -2.5°F-19.2°C 15% 16.3 mph SE26.2 kmh SE 30.0 mph48.3 kmh 30.16 in1021.3 mb 0.00 in0.0 mm 0.00 in0.0 mm 0.00 in0.0 mm
05:55 AM 41.2°F5.1°C -1.5°F-18.6°C 16% 14.3 mph SE23.0 kmh SE 24.8 mph39.9 kmh 30.16 in1021.3 mb 0.00 in0.0 mm 0.00 in0.0 mm 0.00 in0.0 mm
06:00 AM 41.2°F5.1°C -2.0°F-18.9°C 16% 14.5 mph ESE23.3 kmh ESE 27.5 mph44.3 kmh 30.16 in1021.3 mb 0.00 in0.0 mm 0.00 in0.0 mm 0.00 in0.0 mm
06:05 AM 41.2°F5.1°C -2.1°F-18.9°C 16% 15.2 mph SE24.5 kmh SE 32.4 mph52.1 kmh 30.16 in1021.3 mb 0.00 in0.0 mm 0.00 in0.0 mm 0.00 in0.0 mm
06:10 AM 41.2°F5.1°C -2.5°F-19.2°C 15% 12.7 mph SE20.4 kmh SE 24.8 mph39.9 kmh 30.16 in1021.3 mb 0.00 in0.0 mm 0.00 in0.0 mm 0.00 in0.0 mm
06:15 AM 41.2°F5.1°C -2.0°F-18.9°C 16% 13.5 mph SE21.7 kmh SE 22.4 mph36.0 kmh 30.16 in1021.3 mb 0.00 in0.0 mm 0.00 in0.0 mm 0.00 in0.0 mm
06:20 AM 41.2°F5.1°C -2.4°F-19.1°C 15% 14.1 mph SE22.7 kmh SE 34.9 mph56.2 kmh 30.16 in1021.3 mb 0.00 in0.0 mm 0.00 in0.0 mm 0.00 in0.0 mm
06:25 AM 41.2°F5.1°C -2.7°F-19.3°C 15% 13.5 mph SE21.7 kmh SE 27.5 mph44.3 kmh 30.16 in1021.3 mb 0.00 in0.0 mm 0.00 in0.0 mm 0.00 in0.0 mm
06:30 AM 41.2°F5.1°C -2.6°F-19.2°C 15% 15.4 mph SE24.8 kmh SE 32.4 mph52.1 kmh 30.16 in1021.3 mb 0.00 in0.0 mm 0.00 in0.0 mm 0.00 in0.0 mm
06:35 AM 41.2°F5.1°C -2.5°F-19.2°C 15% 14.2 mph SE22.9 kmh SE 30.0 mph48.3 kmh 30.16 in1021.3 mb 0.00 in0.0 mm 0.00 in0.0 mm 0.00 in0.0 mm
06:40 AM 41.2°F5.1°C -2.8°F-19.3°C 15% 13.3 mph SE21.4 kmh SE 24.8 mph39.9 kmh 30.17 in1021.7 mb 0.00 in0.0 mm 0.00 in0.0 mm 0.00 in0.0 mm
06:45 AM 41.2°F5.1°C -3.3°F-19.6°C 15% 12.9 mph SE20.8 kmh SE 22.4 mph36.0 kmh 30.17 in1021.7 mb 0.00 in0.0 mm 0.00 in0.0 mm 0.00 in0.0 mm
06:50 AM 41.3°F5.2°C -3.8°F-19.9°C 14% 15.6 mph SE25.1 kmh SE 32.4 mph52.1 kmh 30.17 in1021.7 mb 0.00 in0.0 mm 0.00 in0.0 mm 0.00 in0.0 mm
06:55 AM 41.4°F5.2°C -4.1°F-20.1°C 14% 13.9 mph SE22.4 kmh SE 22.4 mph36.0 kmh 30.17 in1021.7 mb 0.00 in0.0 mm 0.00 in0.0 mm 0.00 in0.0 mm
07:00 AM 41.4°F5.2°C -4.2°F-20.1°C 14% 14.9 mph SE24.0 kmh SE 27.5 mph44.3 kmh 30.17 in1021.7 mb 0.00 in0.0 mm 0.00 in0.0 mm 0.00 in0.0 mm
07:05 AM 41.4°F5.2°C -5.0°F-20.6°C 13% 14.8 mph SE23.8 kmh SE 27.5 mph44.3 kmh 30.17 in1021.7 mb 0.00 in0.0 mm 0.00 in0.0 mm 0.00 in0.0 mm
07:10 AM 41.4°F5.2°C -5.6°F-20.9°C 13% 12.6 mph SE20.3 kmh SE 24.8 mph39.9 kmh 30.17 in1021.7 mb 0.00 in0.0 mm 0.00 in0.0 mm 0.00 in0.0 mm
07:15 AM 41.4°F5.2°C -5.7°F-20.9°C 13% 14.0 mph ESE22.5 kmh ESE 24.8 mph39.9 kmh 30.18 in1022.0 mb 0.00 in0.0 mm 0.00 in0.0 mm 0.00 in0.0 mm
07:20 AM 41.4°F5.2°C -6.4°F-21.3°C 13% 13.4 mph ESE21.6 kmh ESE 22.4 mph36.0 kmh 30.18 in1022.0 mb 0.00 in0.0 mm 0.00 in0.0 mm 0.00 in0.0 mm
07:25 AM 41.5°F5.3°C -6.8°F-21.6°C 12% 14.2 mph SE22.9 kmh SE 24.8 mph39.9 kmh 30.18 in1022.0 mb 0.00 in0.0 mm 0.00 in0.0 mm 0.00 in0.0 mm
07:30 AM 41.6°F5.3°C -8.7°F-22.6°C 11% 14.3 mph SE23.0 kmh SE 24.8 mph39.9 kmh 30.18 in1022.0 mb 0.00 in0.0 mm 0.00 in0.0 mm 0.00 in0.0 mm
07:35 AM 41.7°F5.4°C -8.5°F-22.5°C 11% 15.2 mph SE24.5 kmh SE 37.4 mph60.2 kmh 30.18 in1022.0 mb 0.00 in0.0 mm 0.00 in0.0 mm 0.00 in0.0 mm
07:40 AM 41.8°F5.4°C -8.1°F-22.3°C 11% 14.3 mph SE23.0 kmh SE 24.8 mph39.9 kmh 30.17 in1021.7 mb 0.00 in0.0 mm 0.00 in0.0 mm 0.00 in0.0 mm
07:45 AM 41.9°F5.5°C -7.0°F-21.7°C 12% 13.9 mph SE22.4 kmh SE 24.8 mph39.9 kmh 30.18 in1022.0 mb 0.00 in0.0 mm 0.00 in0.0 mm 0.00 in0.0 mm
07:50 AM 41.9°F5.5°C -7.0°F-21.7°C 12% 13.3 mph SE21.4 kmh SE 27.5 mph44.3 kmh 30.17 in1021.7 mb 0.00 in0.0 mm 0.00 in0.0 mm 0.00 in0.0 mm
07:55 AM 42.0°F5.6°C -6.8°F-21.6°C 12% 15.9 mph SE25.6 kmh SE 27.5 mph44.3 kmh 30.17 in1021.7 mb 0.00 in0.0 mm 0.00 in0.0 mm 0.00 in0.0 mm
08:00 AM 42.1°F5.6°C -5.3°F-20.7°C 13% 14.5 mph SE23.3 kmh SE 27.5 mph44.3 kmh 30.17 in1021.7 mb 0.00 in0.0 mm 0.00 in0.0 mm 0.00 in0.0 mm
08:05 AM 42.1°F5.6°C -5.1°F-20.6°C 13% 13.9 mph SE22.4 kmh SE 24.8 mph39.9 kmh 30.18 in1022.0 mb 0.00 in0.0 mm 0.00 in0.0 mm 0.00 in0.0 mm
08:10 AM 42.1°F5.6°C -5.1°F-20.6°C 13% 14.0 mph SE22.5 kmh SE 27.5 mph44.3 kmh 30.18 in1022.0 mb 0.00 in0.0 mm 0.00 in0.0 mm 0.00 in0.0 mm
08:15 AM 42.1°F5.6°C -3.6°F-19.8°C 14% 14.9 mph SE24.0 kmh SE 24.8 mph39.9 kmh 30.18 in1022.0 mb 0.00 in0.0 mm 0.00 in0.0 mm 0.00 in0.0 mm
08:20 AM 42.1°F5.6°C -3.6°F-19.8°C 14% 15.4 mph SE24.8 kmh SE 27.5 mph44.3 kmh 30.18 in1022.0 mb 0.00 in0.0 mm 0.00 in0.0 mm 0.00 in0.0 mm
08:25 AM 42.1°F5.6°C -3.3°F-19.6°C 14% 11.3 mph SE18.2 kmh SE 19.9 mph32.0 kmh 30.18 in1022.0 mb 0.00 in0.0 mm 0.00 in0.0 mm 0.00 in0.0 mm
08:30 AM 42.2°F5.7°C -3.4°F-19.7°C 14% 13.1 mph SE21.1 kmh SE 27.5 mph44.3 kmh 30.17 in1021.7 mb 0.00 in0.0 mm 0.00 in0.0 mm 0.00 in0.0 mm
08:35 AM 42.3°F5.7°C -4.8°F-20.4°C 13% 15.6 mph SE25.1 kmh SE 30.0 mph48.3 kmh 30.18 in1022.0 mb 0.00 in0.0 mm 0.00 in0.0 mm 0.00 in0.0 mm
08:40 AM 42.3°F5.7°C -5.0°F-20.6°C 13% 13.1 mph SE21.1 kmh SE 27.5 mph44.3 kmh 30.18 in1022.0 mb 0.00 in0.0 mm 0.00 in0.0 mm 0.00 in0.0 mm
08:45 AM 42.4°F5.8°C -4.2°F-20.1°C 13% 15.0 mph SE24.1 kmh SE 27.5 mph44.3 kmh 30.18 in1022.0 mb 0.00 in0.0 mm 0.00 in0.0 mm 0.00 in0.0 mm
08:50 AM 42.4°F5.8°C -3.4°F-19.7°C 14% 13.8 mph SE22.2 kmh SE 27.5 mph44.3 kmh 30.18 in1022.0 mb 0.00 in0.0 mm 0.00 in0.0 mm 0.00 in0.0 mm
08:55 AM 42.4°F5.8°C -3.4°F-19.7°C 14% 14.3 mph SE23.0 kmh SE 27.5 mph44.3 kmh 30.19 in1022.4 mb 0.00 in0.0 mm 0.00 in0.0 mm 0.00 in0.0 mm
09:00 AM 42.5°F5.8°C -3.3°F-19.6°C 14% 13.2 mph SE21.2 kmh SE 22.4 mph36.0 kmh 30.19 in1022.4 mb 0.00 in0.0 mm 0.00 in0.0 mm 0.00 in0.0 mm
09:05 AM 42.6°F5.9°C -2.8°F-19.3°C 14% 10.8 mph SE17.4 kmh SE 19.9 mph32.0 kmh 30.19 in1022.4 mb 0.00 in0.0 mm 0.00 in0.0 mm 0.00 in0.0 mm
09:10 AM 42.6°F5.9°C -3.1°F-19.5°C 14% 13.6 mph SE21.9 kmh SE 22.4 mph36.0 kmh 30.20 in1022.7 mb 0.00 in0.0 mm 0.00 in0.0 mm 0.00 in0.0 mm
09:15 AM 42.6°F5.9°C -3.2°F-19.6°C 14% 11.1 mph SE17.9 kmh SE 22.4 mph36.0 kmh 30.21 in1023.0 mb 0.00 in0.0 mm 0.00 in0.0 mm 0.00 in0.0 mm
09:20 AM 42.7°F5.9°C -3.0°F-19.4°C 14% 11.0 mph SE17.7 kmh SE 19.9 mph32.0 kmh 30.21 in1023.0 mb 0.00 in0.0 mm 0.00 in0.0 mm 0.00 in0.0 mm
09:25 AM 42.8°F6.0°C -2.5°F-19.2°C 14% 11.2 mph SE18.0 kmh SE 22.4 mph36.0 kmh 30.21 in1023.0 mb 0.00 in0.0 mm 0.00 in0.0 mm 0.00 in0.0 mm
09:30 AM 42.8°F6.0°C -2.7°F-19.3°C 14% 12.8 mph ESE20.6 kmh ESE 22.4 mph36.0 kmh 30.21 in1023.0 mb 0.00 in0.0 mm 0.00 in0.0 mm 0.00 in0.0 mm
09:35 AM 43.0°F6.1°C -2.5°F-19.2°C 14% 10.8 mph SE17.4 kmh SE 32.4 mph52.1 kmh 30.22 in1023.4 mb 0.00 in0.0 mm 0.00 in0.0 mm 0.00 in0.0 mm
09:40 AM 43.0°F6.1°C -2.1°F-18.9°C 15% 11.5 mph SE18.5 kmh SE 22.4 mph36.0 kmh 30.22 in1023.4 mb 0.00 in0.0 mm 0.00 in0.0 mm 0.00 in0.0 mm
09:45 AM 43.0°F6.1°C -1.4°F-18.6°C 15% 10.6 mph SE17.1 kmh SE 19.9 mph32.0 kmh 30.23 in1023.7 mb 0.00 in0.0 mm 0.00 in0.0 mm 0.00 in0.0 mm
09:50 AM 43.0°F6.1°C -1.4°F-18.6°C 15% 10.1 mph SE16.3 kmh SE 22.4 mph36.0 kmh 30.23 in1023.7 mb 0.00 in0.0 mm 0.00 in0.0 mm 0.00 in0.0 mm
09:55 AM 43.1°F6.2°C -1.6°F-18.7°C 15% 13.0 mph SE20.9 kmh SE 22.4 mph36.0 kmh 30.23 in1023.7 mb 0.00 in0.0 mm 0.00 in0.0 mm 0.00 in0.0 mm
10:00 AM 43.2°F6.2°C -1.2°F-18.4°C 15% 9.3 mph SE15.0 kmh SE 15.0 mph24.1 kmh 30.23 in1023.7 mb 0.00 in0.0 mm 0.00 in0.0 mm 0.00 in0.0 mm
10:05 AM 43.2°F6.2°C -0.5°F-18.1°C 16% 11.1 mph SE17.9 kmh SE 22.4 mph36.0 kmh 30.24 in1024.0 mb 0.00 in0.0 mm 0.00 in0.0 mm 0.00 in0.0 mm
10:10 AM 43.2°F6.2°C -1.3°F-18.5°C 15% 9.3 mph SE15.0 kmh SE 17.4 mph28.0 kmh 30.24 in1024.0 mb 0.00 in0.0 mm 0.00 in0.0 mm 0.00 in0.0 mm
10:15 AM 43.2°F6.2°C -1.3°F-18.5°C 15% 12.5 mph SE20.1 kmh SE 22.4 mph36.0 kmh 30.24 in1024.0 mb 0.00 in0.0 mm 0.00 in0.0 mm 0.00 in0.0 mm
10:20 AM 43.3°F6.3°C -2.7°F-19.3°C 14% 10.2 mph SE16.4 kmh SE 17.4 mph28.0 kmh 30.24 in1024.0 mb 0.00 in0.0 mm 0.00 in0.0 mm 0.00 in0.0 mm
10:25 AM 43.3°F6.3°C -2.6°F-19.2°C 14% 11.2 mph SE18.0 kmh SE 27.5 mph44.3 kmh 30.24 in1024.0 mb 0.00 in0.0 mm 0.00 in0.0 mm 0.00 in0.0 mm
10:30 AM 43.5°F6.4°C -2.5°F-19.2°C 14% 10.3 mph SE16.6 kmh SE 27.5 mph44.3 kmh 30.25 in1024.4 mb 0.00 in0.0 mm 0.00 in0.0 mm 0.00 in0.0 mm
10:35 AM 43.7°F6.5°C -3.0°F-19.4°C 14% 12.8 mph SE20.6 kmh SE 24.8 mph39.9 kmh 30.25 in1024.4 mb 0.00 in0.0 mm 0.00 in0.0 mm 0.00 in0.0 mm
10:40 AM 43.9°F6.6°C -2.4°F-19.1°C 14% 11.0 mph SE17.7 kmh SE 19.9 mph32.0 kmh 30.26 in1024.7 mb 0.00 in0.0 mm 0.00 in0.0 mm 0.00 in0.0 mm
10:45 AM 43.9°F6.6°C -1.8°F-18.8°C 14% 12.6 mph SE20.3 kmh SE 24.8 mph39.9 kmh 30.26 in1024.7 mb 0.00 in0.0 mm 0.00 in0.0 mm 0.00 in0.0 mm
10:50 AM 44.1°F6.7°C -0.6°F-18.1°C 15% 12.3 mph SE19.8 kmh SE 19.9 mph32.0 kmh 30.26 in1024.7 mb 0.00 in0.0 mm 0.00 in0.0 mm 0.00 in0.0 mm
10:55 AM 44.1°F6.7°C -1.5°F-18.6°C 14% 11.9 mph SE19.2 kmh SE 27.5 mph44.3 kmh 30.27 in1025.1 mb 0.00 in0.0 mm 0.00 in0.0 mm 0.00 in0.0 mm
11:00 AM 44.1°F6.7°C -1.9°F-18.8°C 14% 14.0 mph SE22.5 kmh SE 24.8 mph39.9 kmh 30.27 in1025.1 mb 0.00 in0.0 mm 0.00 in0.0 mm 0.00 in0.0 mm
11:05 AM 44.1°F6.7°C -2.4°F-19.1°C 14% 13.5 mph SE21.7 kmh SE 19.9 mph32.0 kmh 30.27 in1025.1 mb 0.00 in0.0 mm 0.00 in0.0 mm 0.00 in0.0 mm
11:10 AM 44.1°F6.7°C -2.3°F-19.1°C 14% 10.9 mph SE17.5 kmh SE 17.4 mph28.0 kmh 30.27 in1025.1 mb 0.00 in0.0 mm 0.00 in0.0 mm 0.00 in0.0 mm
11:15 AM 44.1°F6.7°C -2.8°F-19.3°C 13% 11.8 mph SE19.0 kmh SE 24.8 mph39.9 kmh 30.27 in1025.1 mb 0.00 in0.0 mm 0.00 in0.0 mm 0.00 in0.0 mm
11:20 AM 44.2°F6.8°C -3.3°F-19.6°C 13% 12.9 mph SE20.8 kmh SE 22.4 mph36.0 kmh 30.27 in1025.1 mb 0.00 in0.0 mm 0.00 in0.0 mm 0.00 in0.0 mm
11:25 AM 44.2°F6.8°C -2.2°F-19.0°C 14% 12.1 mph SE19.5 kmh SE 22.4 mph36.0 kmh 30.27 in1025.1 mb 0.00 in0.0 mm 0.00 in0.0 mm 0.00 in0.0 mm
11:30 AM 44.4°F6.9°C -1.8°F-18.8°C 14% 9.7 mph SE15.6 kmh SE 15.0 mph24.1 kmh 30.27 in1025.1 mb 0.00 in0.0 mm 0.00 in0.0 mm 0.00 in0.0 mm
11:35 AM 44.4°F6.9°C -1.8°F-18.8°C 14% 12.6 mph SE20.3 kmh SE 22.4 mph36.0 kmh 30.27 in1025.1 mb 0.00 in0.0 mm 0.00 in0.0 mm 0.00 in0.0 mm
11:40 AM 44.4°F6.9°C -1.8°F-18.8°C 14% 9.8 mph SE15.8 kmh SE 19.9 mph32.0 kmh 30.28 in1025.4 mb 0.00 in0.0 mm 0.00 in0.0 mm 0.00 in0.0 mm
11:45 AM 44.4°F6.9°C -1.8°F-18.8°C 14% 10.0 mph SE16.1 kmh SE 19.9 mph32.0 kmh 30.27 in1025.1 mb 0.00 in0.0 mm 0.00 in0.0 mm 0.00 in0.0 mm
11:50 AM 44.4°F6.9°C -1.8°F-18.8°C 14% 11.1 mph SE17.9 kmh SE 19.9 mph32.0 kmh 30.28 in1025.4 mb 0.00 in0.0 mm 0.00 in0.0 mm 0.00 in0.0 mm
11:55 AM 44.6°F7.0°C -1.0°F-18.3°C 14% 9.7 mph SE15.6 kmh SE 17.4 mph28.0 kmh 30.28 in1025.4 mb 0.00 in0.0 mm 0.00 in0.0 mm 0.00 in0.0 mm
12:00 PM 44.6°F7.0°C -0.6°F-18.1°C 15% 8.8 mph SE14.2 kmh SE 17.4 mph28.0 kmh 30.28 in1025.4 mb 0.00 in0.0 mm 0.00 in0.0 mm 0.00 in0.0 mm
12:05 PM 44.6°F7.0°C -0.1°F-17.8°C 15% 9.2 mph SE14.8 kmh SE 19.9 mph32.0 kmh 30.28 in1025.4 mb 0.00 in0.0 mm 0.00 in0.0 mm 0.00 in0.0 mm
12:10 PM 44.6°F7.0°C -0.1°F-17.8°C 15% 9.8 mph SE15.8 kmh SE 19.9 mph32.0 kmh 30.29 in1025.7 mb 0.00 in0.0 mm 0.00 in0.0 mm 0.00 in0.0 mm
12:15 PM 44.6°F7.0°C -1.5°F-18.6°C 14% 12.6 mph SE20.3 kmh SE 22.4 mph36.0 kmh 30.29 in1025.7 mb 0.00 in0.0 mm 0.00 in0.0 mm 0.00 in0.0 mm
12:20 PM 44.6°F7.0°C -1.5°F-18.6°C 14% 8.7 mph SE14.0 kmh SE 22.4 mph36.0 kmh 30.29 in1025.7 mb 0.00 in0.0 mm 0.00 in0.0 mm 0.00 in0.0 mm
12:25 PM 44.6°F7.0°C -1.4°F-18.6°C 14% 9.4 mph SE15.1 kmh SE 17.4 mph28.0 kmh 30.29 in1025.7 mb 0.00 in0.0 mm 0.00 in0.0 mm 0.00 in0.0 mm
12:30 PM 44.6°F7.0°C -1.6°F-18.7°C 14% 11.2 mph SE18.0 kmh SE 22.4 mph36.0 kmh 30.29 in1025.7 mb 0.00 in0.0 mm 0.00 in0.0 mm 0.00 in0.0 mm
12:35 PM 44.6°F7.0°C -2.0°F-18.9°C 14% 8.7 mph SE14.0 kmh SE 19.9 mph32.0 kmh 30.29 in1025.7 mb 0.00 in0.0 mm 0.00 in0.0 mm 0.00 in0.0 mm
12:40 PM 44.8°F7.1°C -1.7°F-18.7°C 14% 11.3 mph SE18.2 kmh SE 22.4 mph36.0 kmh 30.29 in1025.7 mb 0.00 in0.0 mm 0.00 in0.0 mm 0.00 in0.0 mm
12:45 PM 44.8°F7.1°C -2.4°F-19.1°C 13% 10.3 mph SE16.6 kmh SE 19.9 mph32.0 kmh 30.30 in1026.1 mb 0.00 in0.0 mm 0.00 in0.0 mm 0.00 in0.0 mm
12:50 PM 44.9°F7.2°C -1.4°F-18.6°C 14% 10.2 mph SE16.4 kmh SE 17.4 mph28.0 kmh 30.30 in1026.1 mb 0.00 in0.0 mm 0.00 in0.0 mm 0.00 in0.0 mm
12:55 PM 45.0°F7.2°C -1.2°F-18.4°C 14% 14.2 mph SE22.9 kmh SE 19.9 mph32.0 kmh 30.30 in1026.1 mb 0.00 in0.0 mm 0.00 in0.0 mm 0.00 in0.0 mm
01:00 PM 45.0°F7.2°C -1.3°F-18.5°C 14% 10.9 mph SE17.5 kmh SE 19.9 mph32.0 kmh 30.29 in1025.7 mb 0.00 in0.0 mm 0.00 in0.0 mm 0.00 in0.0 mm
01:05 PM 45.0°F7.2°C -1.2°F-18.4°C 14% 11.6 mph SE18.7 kmh SE 22.4 mph36.0 kmh 30.29 in1025.7 mb 0.00 in0.0 mm 0.00 in0.0 mm 0.00 in0.0 mm
01:10 PM 45.1°F7.3°C -1.2°F-18.4°C 14% 9.8 mph SE15.8 kmh SE 19.9 mph32.0 kmh 30.29 in1025.7 mb 0.00 in0.0 mm 0.00 in0.0 mm 0.00 in0.0 mm
01:15 PM 45.1°F7.3°C -1.2°F-18.4°C 14% 8.0 mph SE12.9 kmh SE 15.0 mph24.1 kmh 30.29 in1025.7 mb 0.00 in0.0 mm 0.00 in0.0 mm 0.00 in0.0 mm
01:20 PM 45.1°F7.3°C -1.2°F-18.4°C 14% 11.8 mph SE19.0 kmh SE 19.9 mph32.0 kmh 30.29 in1025.7 mb 0.00 in0.0 mm 0.00 in0.0 mm 0.00 in0.0 mm
01:25 PM 45.1°F7.3°C -0.7°F-18.2°C 14% 11.7 mph SE18.8 kmh SE 19.9 mph32.0 kmh 30.29 in1025.7 mb 0.00 in0.0 mm 0.00 in0.0 mm 0.00 in0.0 mm
01:30 PM 45.3°F7.4°C -0.8°F-18.2°C 14% 9.7 mph SE15.6 kmh SE 17.4 mph28.0 kmh 30.29 in1025.7 mb 0.00 in0.0 mm 0.00 in0.0 mm 0.00 in0.0 mm
01:35 PM 45.3°F7.4°C -1.2°F-18.4°C 14% 10.0 mph SE16.1 kmh SE 22.4 mph36.0 kmh 30.30 in1026.1 mb 0.00 in0.0 mm 0.00 in0.0 mm 0.00 in0.0 mm
01:40 PM 45.3°F7.4°C -1.2°F-18.4°C 14% 10.9 mph SE17.5 kmh SE 19.9 mph32.0 kmh 30.30 in1026.1 mb 0.00 in0.0 mm 0.00 in0.0 mm 0.00 in0.0 mm
01:45 PM 45.4°F7.4°C -2.5°F-19.2°C 13% 11.0 mph SE17.7 kmh SE 19.9 mph32.0 kmh 30.30 in1026.1 mb 0.00 in0.0 mm 0.00 in0.0 mm 0.00 in0.0 mm
01:50 PM 45.5°F7.5°C -1.2°F-18.4°C 14% 10.7 mph ESE17.2 kmh ESE 17.4 mph28.0 kmh 30.30 in1026.1 mb 0.00 in0.0 mm 0.00 in0.0 mm 0.00 in0.0 mm
01:55 PM 45.5°F7.5°C -0.7°F-18.2°C 14% 9.7 mph SE15.6 kmh SE 22.4 mph36.0 kmh 30.30 in1026.1 mb 0.00 in0.0 mm 0.00 in0.0 mm 0.00 in0.0 mm
02:00 PM 45.5°F7.5°C -0.9°F-18.3°C 14% 6.7 mph SE10.8 kmh SE 12.3 mph19.8 kmh 30.31 in1026.4 mb 0.00 in0.0 mm 0.00 in0.0 mm 0.00 in0.0 mm
02:05 PM 45.6°F7.6°C -0.5°F-18.1°C 14% 10.4 mph SE16.7 kmh SE 19.9 mph32.0 kmh 30.31 in1026.4 mb 0.00 in0.0 mm 0.00 in0.0 mm 0.00 in0.0 mm
02:10 PM 45.7°F7.6°C -0.6°F-18.1°C 14% 10.5 mph SE16.9 kmh SE 17.4 mph28.0 kmh 30.31 in1026.4 mb 0.00 in0.0 mm 0.00 in0.0 mm 0.00 in0.0 mm
02:15 PM 45.7°F7.6°C -0.7°F-18.2°C 14% 11.6 mph SE18.7 kmh SE 19.9 mph32.0 kmh 30.31 in1026.4 mb 0.00 in0.0 mm 0.00 in0.0 mm 0.00 in0.0 mm
02:20 PM 45.7°F7.6°C -0.7°F-18.2°C 14% 10.1 mph SE16.3 kmh SE 22.4 mph36.0 kmh 30.30 in1026.1 mb 0.00 in0.0 mm 0.00 in0.0 mm 0.00 in0.0 mm
02:25 PM 45.9°F7.7°C -1.0°F-18.3°C 14% 10.3 mph SE16.6 kmh SE 17.4 mph28.0 kmh 30.31 in1026.4 mb 0.00 in0.0 mm 0.00 in0.0 mm 0.00 in0.0 mm
02:30 PM 45.9°F7.7°C -1.5°F-18.6°C 13% 13.3 mph SE21.4 kmh SE 27.5 mph44.3 kmh 30.31 in1026.4 mb 0.00 in0.0 mm 0.00 in0.0 mm 0.00 in0.0 mm
02:35 PM 46.0°F7.8°C -0.5°F-18.1°C 14% 10.0 mph SE16.1 kmh SE 19.9 mph32.0 kmh 30.31 in1026.4 mb 0.00 in0.0 mm 0.00 in0.0 mm 0.00 in0.0 mm
02:40 PM 46.1°F7.8°C -0.4°F-18.0°C 14% 9.3 mph SE15.0 kmh SE 15.0 mph24.1 kmh 30.31 in1026.4 mb 0.00 in0.0 mm 0.00 in0.0 mm 0.00 in0.0 mm
02:45 PM 46.2°F7.9°C -0.3°F-17.9°C 14% 9.8 mph SE15.8 kmh SE 17.4 mph28.0 kmh 30.31 in1026.4 mb 0.00 in0.0 mm 0.00 in0.0 mm 0.00 in0.0 mm
02:50 PM 46.2°F7.9°C -0.3°F-17.9°C 14% 6.9 mph SE11.1 kmh SE 19.9 mph32.0 kmh 30.32 in1026.8 mb 0.00 in0.0 mm 0.00 in0.0 mm 0.00 in0.0 mm
02:55 PM 46.2°F7.9°C -0.3°F-17.9°C 14% 6.8 mph SE10.9 kmh SE 15.0 mph24.1 kmh 30.32 in1026.8 mb 0.00 in0.0 mm 0.00 in0.0 mm 0.00 in0.0 mm
03:00 PM 46.2°F7.9°C -0.3°F-17.9°C 14% 7.5 mph SE12.1 kmh SE 15.0 mph24.1 kmh 30.32 in1026.8 mb 0.00 in0.0 mm 0.00 in0.0 mm 0.00 in0.0 mm
03:05 PM 46.3°F7.9°C -0.3°F-17.9°C 14% 5.4 mph ESE8.7 kmh ESE 12.3 mph19.8 kmh 30.32 in1026.8 mb 0.00 in0.0 mm 0.00 in0.0 mm 0.00 in0.0 mm
03:10 PM 46.4°F8.0°C 0.7°F-17.4°C 15% 8.7 mph SE14.0 kmh SE 17.4 mph28.0 kmh 30.32 in1026.8 mb 0.00 in0.0 mm 0.00 in0.0 mm 0.00 in0.0 mm
03:15 PM 46.4°F8.0°C 0.2°F-17.7°C 14% 8.2 mph SE13.2 kmh SE 15.0 mph24.1 kmh 30.33 in1027.1 mb 0.00 in0.0 mm 0.00 in0.0 mm 0.00 in0.0 mm
03:20 PM 46.4°F8.0°C -0.2°F-17.9°C 14% 4.6 mph SE7.4 kmh SE 12.3 mph19.8 kmh 30.33 in1027.1 mb 0.00 in0.0 mm 0.00 in0.0 mm 0.00 in0.0 mm
03:25 PM 46.4°F8.0°C -0.2°F-17.9°C 14% 8.2 mph SE13.2 kmh SE 19.9 mph32.0 kmh 30.33 in1027.1 mb 0.00 in0.0 mm 0.00 in0.0 mm 0.00 in0.0 mm
03:30 PM 46.6°F8.1°C 0.4°F-17.6°C 14% 5.1 mph SE8.2 kmh SE 12.3 mph19.8 kmh 30.34 in1027.4 mb 0.00 in0.0 mm 0.00 in0.0 mm 0.00 in0.0 mm
03:35 PM 46.6°F8.1°C 0.1°F-17.7°C 14% 5.3 mph SE8.5 kmh SE 12.3 mph19.8 kmh 30.34 in1027.4 mb 0.00 in0.0 mm 0.00 in0.0 mm 0.00 in0.0 mm
03:40 PM 46.7°F8.2°C 0.3°F-17.6°C 14% 5.0 mph SE8.0 kmh SE 9.8 mph15.8 kmh 30.34 in1027.4 mb 0.00 in0.0 mm 0.00 in0.0 mm 0.00 in0.0 mm
03:45 PM 46.8°F8.2°C 1.3°F-17.1°C 15% 2.6 mph SE4.2 kmh SE 9.8 mph15.8 kmh 30.34 in1027.4 mb 0.00 in0.0 mm 0.00 in0.0 mm 0.00 in0.0 mm
03:50 PM 46.9°F8.3°C 1.7°F-16.8°C 15% 4.6 mph SE7.4 kmh SE 15.0 mph24.1 kmh 30.35 in1027.8 mb 0.00 in0.0 mm 0.00 in0.0 mm 0.00 in0.0 mm
03:55 PM 46.9°F8.3°C 1.5°F-16.9°C 15% 5.5 mph SE8.9 kmh SE 12.3 mph19.8 kmh 30.34 in1027.4 mb 0.00 in0.0 mm 0.00 in0.0 mm 0.00 in0.0 mm
04:00 PM 46.9°F8.3°C 1.7°F-16.8°C 15% 7.5 mph SE12.1 kmh SE 15.0 mph24.1 kmh 30.34 in1027.4 mb 0.00 in0.0 mm 0.00 in0.0 mm 0.00 in0.0 mm
04:05 PM 46.9°F8.3°C 1.3°F-17.1°C 15% 7.4 mph SE11.9 kmh SE 15.0 mph24.1 kmh 30.34 in1027.4 mb 0.00 in0.0 mm 0.00 in0.0 mm 0.00 in0.0 mm
04:10 PM 46.9°F8.3°C 1.7°F-16.8°C 15% 5.6 mph SE9.0 kmh SE 9.8 mph15.8 kmh 30.35 in1027.8 mb 0.00 in0.0 mm 0.00 in0.0 mm 0.00 in0.0 mm
04:15 PM 47.1°F8.4°C 1.9°F-16.7°C 15% 6.1 mph SE9.8 kmh SE 15.0 mph24.1 kmh 30.35 in1027.8 mb 0.00 in0.0 mm 0.00 in0.0 mm 0.00 in0.0 mm
04:20 PM 47.1°F8.4°C 1.9°F-16.7°C 15% 8.2 mph SE13.2 kmh SE 17.4 mph28.0 kmh 30.35 in1027.8 mb 0.00 in0.0 mm 0.00 in0.0 mm 0.00 in0.0 mm
04:25 PM 47.1°F8.4°C 1.9°F-16.7°C 15% 8.3 mph SE13.4 kmh SE 19.9 mph32.0 kmh 30.35 in1027.8 mb 0.00 in0.0 mm 0.00 in0.0 mm 0.00 in0.0 mm
04:30 PM 47.1°F8.4°C 2.0°F-16.7°C 15% 8.5 mph ESE13.7 kmh ESE 17.4 mph28.0 kmh 30.35 in1027.8 mb 0.00 in0.0 mm 0.00 in0.0 mm 0.00 in0.0 mm
04:35 PM 47.1°F8.4°C 2.3°F-16.5°C 15% 8.6 mph SE13.8 kmh SE 15.0 mph24.1 kmh 30.35 in1027.8 mb 0.00 in0.0 mm 0.00 in0.0 mm 0.00 in0.0 mm
04:40 PM 47.1°F8.4°C 3.3°F-15.9°C 16% 8.4 mph ESE13.5 kmh ESE 15.0 mph24.1 kmh 30.35 in1027.8 mb 0.00 in0.0 mm 0.00 in0.0 mm 0.00 in0.0 mm
04:45 PM 47.1°F8.4°C 3.4°F-15.9°C 16% 7.7 mph SE12.4 kmh SE 15.0 mph24.1 kmh 30.35 in1027.8 mb 0.00 in0.0 mm 0.00 in0.0 mm 0.00 in0.0 mm
04:50 PM 46.9°F8.3°C 3.2°F-16.0°C 16% 8.2 mph SE13.2 kmh SE 15.0 mph24.1 kmh 30.35 in1027.8 mb 0.00 in0.0 mm 0.00 in0.0 mm 0.00 in0.0 mm
04:55 PM 46.9°F8.3°C 3.8°F-15.7°C 17% 6.6 mph SE10.6 kmh SE 9.8 mph15.8 kmh 30.35 in1027.8 mb 0.00 in0.0 mm 0.00 in0.0 mm 0.00 in0.0 mm
05:00 PM 46.9°F8.3°C 4.4°F-15.3°C 17% 8.4 mph SE13.5 kmh SE 15.0 mph24.1 kmh 30.35 in1027.8 mb 0.00 in0.0 mm 0.00 in0.0 mm 0.00 in0.0 mm
05:05 PM 46.9°F8.3°C 3.1°F-16.1°C 16% 10.3 mph SE16.6 kmh SE 17.4 mph28.0 kmh 30.35 in1027.8 mb 0.00 in0.0 mm 0.00 in0.0 mm 0.00 in0.0 mm
05:10 PM 46.9°F8.3°C 3.8°F-15.7°C 17% 7.5 mph SE12.1 kmh SE 12.3 mph19.8 kmh 30.35 in1027.8 mb 0.00 in0.0 mm 0.00 in0.0 mm 0.00 in0.0 mm
05:15 PM 46.8°F8.2°C 4.3°F-15.4°C 17% 6.1 mph SE9.8 kmh SE 12.3 mph19.8 kmh 30.36 in1028.1 mb 0.00 in0.0 mm 0.00 in0.0 mm 0.00 in0.0 mm
05:20 PM 46.8°F8.2°C 4.3°F-15.4°C 17% 5.9 mph ESE9.5 kmh ESE 15.0 mph24.1 kmh 30.36 in1028.1 mb 0.00 in0.0 mm 0.00 in0.0 mm 0.00 in0.0 mm
05:25 PM 46.8°F8.2°C 4.4°F-15.3°C 17% 8.1 mph SE13.0 kmh SE 17.4 mph28.0 kmh 30.35 in1027.8 mb 0.00 in0.0 mm 0.00 in0.0 mm 0.00 in0.0 mm
05:30 PM 46.8°F8.2°C 4.0°F-15.6°C 17% 10.3 mph SE16.6 kmh SE 19.9 mph32.0 kmh 30.35 in1027.8 mb 0.00 in0.0 mm 0.00 in0.0 mm 0.00 in0.0 mm
05:35 PM 46.8°F8.2°C 4.3°F-15.4°C 17% 7.5 mph SE12.1 kmh SE 12.3 mph19.8 kmh 30.36 in1028.1 mb 0.00 in0.0 mm 0.00 in0.0 mm 0.00 in0.0 mm
05:40 PM 46.8°F8.2°C 4.6°F-15.2°C 17% 11.3 mph SE18.2 kmh SE 22.4 mph36.0 kmh 30.36 in1028.1 mb 0.00 in0.0 mm 0.00 in0.0 mm 0.00 in0.0 mm
05:45 PM 46.8°F8.2°C 5.5°F-14.7°C 18% 9.2 mph SE14.8 kmh SE 17.4 mph28.0 kmh 30.36 in1028.1 mb 0.00 in0.0 mm 0.00 in0.0 mm 0.00 in0.0 mm
05:50 PM 46.8°F8.2°C 5.6°F-14.7°C 18% 9.7 mph ESE15.6 kmh ESE 19.9 mph32.0 kmh 30.37 in1028.4 mb 0.00 in0.0 mm 0.00 in0.0 mm 0.00 in0.0 mm
05:55 PM 46.8°F8.2°C 5.1°F-14.9°C 18% 7.5 mph SE12.1 kmh SE 12.3 mph19.8 kmh 30.37 in1028.4 mb 0.00 in0.0 mm 0.00 in0.0 mm 0.00 in0.0 mm
06:00 PM 46.8°F8.2°C 5.6°F-14.7°C 18% 8.2 mph ESE13.2 kmh ESE 15.0 mph24.1 kmh 30.37 in1028.4 mb 0.00 in0.0 mm 0.00 in0.0 mm 0.00 in0.0 mm
06:05 PM 46.8°F8.2°C 5.6°F-14.7°C 18% 7.9 mph ESE12.7 kmh ESE 15.0 mph24.1 kmh 30.37 in1028.4 mb 0.00 in0.0 mm 0.00 in0.0 mm 0.00 in0.0 mm
06:10 PM 46.8°F8.2°C 5.6°F-14.7°C 18% 8.8 mph SE14.2 kmh SE 19.9 mph32.0 kmh 30.37 in1028.4 mb 0.00 in0.0 mm 0.00 in0.0 mm 0.00 in0.0 mm
06:15 PM 46.8°F8.2°C 5.6°F-14.7°C 18% 9.3 mph SE15.0 kmh SE 19.9 mph32.0 kmh 30.38 in1028.8 mb 0.00 in0.0 mm 0.00 in0.0 mm 0.00 in0.0 mm
06:20 PM 46.8°F8.2°C 5.7°F-14.6°C 18% 7.2 mph SE11.6 kmh SE 15.0 mph24.1 kmh 30.38 in1028.8 mb 0.00 in0.0 mm 0.00 in0.0 mm 0.00 in0.0 mm
06:25 PM 46.9°F8.3°C 6.1°F-14.4°C 18% 7.5 mph SE12.1 kmh SE 12.3 mph19.8 kmh 30.38 in1028.8 mb 0.00 in0.0 mm 0.00 in0.0 mm 0.00 in0.0 mm
06:30 PM 46.9°F8.3°C 6.8°F-14.0°C 19% 6.2 mph SE10.0 kmh SE 12.3 mph19.8 kmh 30.38 in1028.8 mb 0.00 in0.0 mm 0.00 in0.0 mm 0.00 in0.0 mm
06:35 PM 46.9°F8.3°C 6.8°F-14.0°C 19% 6.8 mph SE10.9 kmh SE 17.4 mph28.0 kmh 30.38 in1028.8 mb 0.00 in0.0 mm 0.00 in0.0 mm 0.00 in0.0 mm
06:40 PM 46.9°F8.3°C 7.1°F-13.8°C 19% 6.4 mph SE10.3 kmh SE 12.3 mph19.8 kmh 30.38 in1028.8 mb 0.00 in0.0 mm 0.00 in0.0 mm 0.00 in0.0 mm
06:45 PM 46.9°F8.3°C 7.9°F-13.4°C 20% 6.4 mph SE10.3 kmh SE 15.0 mph24.1 kmh 30.38 in1028.8 mb 0.00 in0.0 mm 0.00 in0.0 mm 0.00 in0.0 mm
06:50 PM 46.9°F8.3°C 7.7°F-13.5°C 20% 9.4 mph SE15.1 kmh SE 17.4 mph28.0 kmh 30.38 in1028.8 mb 0.00 in0.0 mm 0.00 in0.0 mm 0.00 in0.0 mm
06:55 PM 46.9°F8.3°C 7.3°F-13.7°C 19% 9.8 mph SE15.8 kmh SE 17.4 mph28.0 kmh 30.38 in1028.8 mb 0.00 in0.0 mm 0.00 in0.0 mm 0.00 in0.0 mm
07:00 PM 46.9°F8.3°C 7.0°F-13.9°C 19% 9.8 mph SE15.8 kmh SE 17.4 mph28.0 kmh 30.38 in1028.8 mb 0.00 in0.0 mm 0.00 in0.0 mm 0.00 in0.0 mm
07:05 PM 46.9°F8.3°C 7.9°F-13.4°C 20% 7.7 mph SE12.4 kmh SE 17.4 mph28.0 kmh 30.38 in1028.8 mb 0.00 in0.0 mm 0.00 in0.0 mm 0.00 in0.0 mm
07:10 PM 46.9°F8.3°C 8.0°F-13.3°C 20% 6.6 mph SE10.6 kmh SE 19.9 mph32.0 kmh 30.39 in1029.1 mb 0.00 in0.0 mm 0.00 in0.0 mm 0.00 in0.0 mm
07:15 PM 46.9°F8.3°C 8.0°F-13.3°C 20% 8.4 mph ESE13.5 kmh ESE 15.0 mph24.1 kmh 30.38 in1028.8 mb 0.00 in0.0 mm 0.00 in0.0 mm 0.00 in0.0 mm
07:20 PM 46.9°F8.3°C 7.9°F-13.4°C 20% 5.5 mph SE8.9 kmh SE 9.8 mph15.8 kmh 30.39 in1029.1 mb 0.00 in0.0 mm 0.00 in0.0 mm 0.00 in0.0 mm
07:25 PM 47.1°F8.4°C 8.1°F-13.3°C 20% 6.4 mph ESE10.3 kmh ESE 17.4 mph28.0 kmh 30.39 in1029.1 mb 0.00 in0.0 mm 0.00 in0.0 mm 0.00 in0.0 mm
07:30 PM 47.1°F8.4°C 8.1°F-13.3°C 20% 6.8 mph ESE10.9 kmh ESE 9.8 mph15.8 kmh 30.39 in1029.1 mb 0.00 in0.0 mm 0.00 in0.0 mm 0.00 in0.0 mm
07:35 PM 46.9°F8.3°C 8.0°F-13.3°C 20% 7.6 mph ESE12.2 kmh ESE 17.4 mph28.0 kmh 30.39 in1029.1 mb 0.00 in0.0 mm 0.00 in0.0 mm 0.00 in0.0 mm
07:40 PM 46.9°F8.3°C 8.0°F-13.3°C 20% 7.7 mph SE12.4 kmh SE 17.4 mph28.0 kmh 30.39 in1029.1 mb 0.00 in0.0 mm 0.00 in0.0 mm 0.00 in0.0 mm
07:45 PM 46.9°F8.3°C 7.9°F-13.4°C 20% 9.7 mph ESE15.6 kmh ESE 19.9 mph32.0 kmh 30.39 in1029.1 mb 0.00 in0.0 mm 0.00 in0.0 mm 0.00 in0.0 mm
07:50 PM 46.9°F8.3°C 7.5°F-13.6°C 20% 10.7 mph SE17.2 kmh SE 22.4 mph36.0 kmh 30.39 in1029.1 mb 0.00 in0.0 mm 0.00 in0.0 mm 0.00 in0.0 mm
07:55 PM 47.1°F8.4°C 7.2°F-13.8°C 19% 6.0 mph SE9.7 kmh SE 12.3 mph19.8 kmh 30.39 in1029.1 mb 0.00 in0.0 mm 0.00 in0.0 mm 0.00 in0.0 mm
08:00 PM 47.1°F8.4°C 8.1°F-13.3°C 20% 5.2 mph SE8.4 kmh SE 9.8 mph15.8 kmh 30.40 in1029.5 mb 0.00 in0.0 mm 0.00 in0.0 mm 0.00 in0.0 mm
08:05 PM 47.1°F8.4°C 8.1°F-13.3°C 20% 6.0 mph SE9.7 kmh SE 12.3 mph19.8 kmh 30.40 in1029.5 mb 0.00 in0.0 mm 0.00 in0.0 mm 0.00 in0.0 mm
08:10 PM 47.1°F8.4°C 7.4°F-13.7°C 19% 8.2 mph SE13.2 kmh SE 17.4 mph28.0 kmh 30.40 in1029.5 mb 0.00 in0.0 mm 0.00 in0.0 mm 0.00 in0.0 mm
08:15 PM 47.1°F8.4°C 7.5°F-13.6°C 19% 10.1 mph SE16.3 kmh SE 15.0 mph24.1 kmh 30.40 in1029.5 mb 0.00 in0.0 mm 0.00 in0.0 mm 0.00 in0.0 mm
08:20 PM 47.1°F8.4°C 7.4°F-13.7°C 19% 8.3 mph SE13.4 kmh SE 15.0 mph24.1 kmh 30.40 in1029.5 mb 0.00 in0.0 mm 0.00 in0.0 mm 0.00 in0.0 mm
08:25 PM 47.1°F8.4°C 7.7°F-13.5°C 20% 7.9 mph SE12.7 kmh SE 15.0 mph24.1 kmh 30.40 in1029.5 mb 0.00 in0.0 mm 0.00 in0.0 mm 0.00 in0.0 mm
08:30 PM 47.2°F8.4°C 8.2°F-13.2°C 20% 7.6 mph SE12.2 kmh SE 12.3 mph19.8 kmh 30.40 in1029.5 mb 0.00 in0.0 mm 0.00 in0.0 mm 0.00 in0.0 mm
08:35 PM 47.3°F8.5°C 7.5°F-13.6°C 19% 10.5 mph SE16.9 kmh SE 19.9 mph32.0 kmh 30.40 in1029.5 mb 0.00 in0.0 mm 0.00 in0.0 mm 0.00 in0.0 mm
08:40 PM 47.3°F8.5°C 7.6°F-13.6°C 19% 8.9 mph SE14.3 kmh SE 17.4 mph28.0 kmh 30.40 in1029.5 mb 0.00 in0.0 mm 0.00 in0.0 mm 0.00 in0.0 mm
08:45 PM 47.3°F8.5°C 8.3°F-13.2°C 20% 9.2 mph SE14.8 kmh SE 22.4 mph36.0 kmh 30.40 in1029.5 mb 0.00 in0.0 mm 0.00 in0.0 mm 0.00 in0.0 mm
08:50 PM 47.3°F8.5°C 8.3°F-13.2°C 20% 8.9 mph SE14.3 kmh SE 22.4 mph36.0 kmh 30.41 in1029.8 mb 0.00 in0.0 mm 0.00 in0.0 mm 0.00 in0.0 mm
08:55 PM 47.3°F8.5°C 8.3°F-13.2°C 20% 10.1 mph SE16.3 kmh SE 17.4 mph28.0 kmh 30.40 in1029.5 mb 0.00 in0.0 mm 0.00 in0.0 mm 0.00 in0.0 mm
09:00 PM 47.3°F8.5°C 8.3°F-13.2°C 20% 11.9 mph SE19.2 kmh SE 19.9 mph32.0 kmh 30.41 in1029.8 mb 0.00 in0.0 mm 0.00 in0.0 mm 0.00 in0.0 mm
09:05 PM 47.3°F8.5°C 8.3°F-13.2°C 20% 11.0 mph SE17.7 kmh SE 19.9 mph32.0 kmh 30.40 in1029.5 mb 0.00 in0.0 mm 0.00 in0.0 mm 0.00 in0.0 mm
09:10 PM 47.3°F8.5°C 8.3°F-13.2°C 20% 8.4 mph SE13.5 kmh SE 22.4 mph36.0 kmh 30.41 in1029.8 mb 0.00 in0.0 mm 0.00 in0.0 mm 0.00 in0.0 mm
09:15 PM 47.3°F8.5°C 8.3°F-13.2°C 20% 10.1 mph SE16.3 kmh SE 19.9 mph32.0 kmh 30.41 in1029.8 mb 0.00 in0.0 mm 0.00 in0.0 mm 0.00 in0.0 mm
09:20 PM 47.3°F8.5°C 8.3°F-13.2°C 20% 6.5 mph SE10.5 kmh SE 17.4 mph28.0 kmh 30.41 in1029.8 mb 0.00 in0.0 mm 0.00 in0.0 mm 0.00 in0.0 mm
09:25 PM 47.3°F8.5°C 8.3°F-13.2°C 20% 9.9 mph SE15.9 kmh SE 17.4 mph28.0 kmh 30.41 in1029.8 mb 0.00 in0.0 mm 0.00 in0.0 mm 0.00 in0.0 mm
09:30 PM 47.3°F8.5°C 8.3°F-13.2°C 20% 10.9 mph SE17.5 kmh SE 19.9 mph32.0 kmh 30.41 in1029.8 mb 0.00 in0.0 mm 0.00 in0.0 mm 0.00 in0.0 mm
09:35 PM 47.3°F8.5°C 8.3°F-13.2°C 20% 10.5 mph SE16.9 kmh SE 19.9 mph32.0 kmh 30.41 in1029.8 mb 0.00 in0.0 mm 0.00 in0.0 mm 0.00 in0.0 mm
09:40 PM 47.4°F8.6°C 8.3°F-13.2°C 20% 11.0 mph SE17.7 kmh SE 19.9 mph32.0 kmh 30.42 in1030.1 mb 0.00 in0.0 mm 0.00 in0.0 mm 0.00 in0.0 mm
09:45 PM 47.5°F8.6°C 8.5°F-13.1°C 20% 10.4 mph SE16.7 kmh SE 19.9 mph32.0 kmh 30.41 in1029.8 mb 0.00 in0.0 mm 0.00 in0.0 mm 0.00 in0.0 mm
09:50 PM 47.5°F8.6°C 8.5°F-13.1°C 20% 9.2 mph SE14.8 kmh SE 19.9 mph32.0 kmh 30.42 in1030.1 mb 0.00 in0.0 mm 0.00 in0.0 mm 0.00 in0.0 mm
09:55 PM 47.5°F8.6°C 8.5°F-13.1°C 20% 10.6 mph SE17.1 kmh SE 19.9 mph32.0 kmh 30.42 in1030.1 mb 0.00 in0.0 mm 0.00 in0.0 mm 0.00 in0.0 mm
10:00 PM 47.5°F8.6°C 8.5°F-13.1°C 20% 9.3 mph SE15.0 kmh SE 19.9 mph32.0 kmh 30.41 in1029.8 mb 0.00 in0.0 mm 0.00 in0.0 mm 0.00 in0.0 mm
10:05 PM 47.5°F8.6°C 8.4°F-13.1°C 20% 11.9 mph SE19.2 kmh SE 19.9 mph32.0 kmh 30.41 in1029.8 mb 0.00 in0.0 mm 0.00 in0.0 mm 0.00 in0.0 mm
10:10 PM 47.5°F8.6°C 7.9°F-13.4°C 20% 9.7 mph SE15.6 kmh SE 19.9 mph32.0 kmh 30.41 in1029.8 mb 0.00 in0.0 mm 0.00 in0.0 mm 0.00 in0.0 mm
10:15 PM 47.5°F8.6°C 7.3°F-13.7°C 19% 11.6 mph SE18.7 kmh SE 19.9 mph32.0 kmh 30.42 in1030.1 mb 0.00 in0.0 mm 0.00 in0.0 mm 0.00 in0.0 mm
10:20 PM 47.7°F8.7°C 7.5°F-13.6°C 19% 8.4 mph SE13.5 kmh SE 15.0 mph24.1 kmh 30.42 in1030.1 mb 0.00 in0.0 mm 0.00 in0.0 mm 0.00 in0.0 mm
10:25 PM 47.7°F8.7°C 7.5°F-13.6°C 19% 10.0 mph SE16.1 kmh SE 22.4 mph36.0 kmh 30.42 in1030.1 mb 0.00 in0.0 mm 0.00 in0.0 mm 0.00 in0.0 mm
10:30 PM 47.7°F8.7°C 7.5°F-13.6°C 19% 8.5 mph SE13.7 kmh SE 17.4 mph28.0 kmh 30.42 in1030.1 mb 0.00 in0.0 mm 0.00 in0.0 mm 0.00 in0.0 mm
10:35 PM 47.7°F8.7°C 7.5°F-13.6°C 19% 9.9 mph SE15.9 kmh SE 17.4 mph28.0 kmh 30.42 in1030.1 mb 0.00 in0.0 mm 0.00 in0.0 mm 0.00 in0.0 mm
10:40 PM 47.7°F8.7°C 6.4°F-14.2°C 18% 11.9 mph SE19.2 kmh SE 22.4 mph36.0 kmh 30.42 in1030.1 mb 0.00 in0.0 mm 0.00 in0.0 mm 0.00 in0.0 mm
10:45 PM 47.7°F8.7°C 5.9°F-14.5°C 18% 9.3 mph SE15.0 kmh SE 15.0 mph24.1 kmh 30.42 in1030.1 mb 0.00 in0.0 mm 0.00 in0.0 mm 0.00 in0.0 mm
10:50 PM 47.8°F8.8°C 5.6°F-14.7°C 17% 8.9 mph SE14.3 kmh SE 17.4 mph28.0 kmh 30.42 in1030.1 mb 0.00 in0.0 mm 0.00 in0.0 mm 0.00 in0.0 mm
10:55 PM 47.8°F8.8°C 5.1°F-14.9°C 17% 11.2 mph ESE18.0 kmh ESE 19.9 mph32.0 kmh 30.41 in1029.8 mb 0.00 in0.0 mm 0.00 in0.0 mm 0.00 in0.0 mm
11:00 PM 47.8°F8.8°C 5.1°F-14.9°C 17% 10.6 mph SE17.1 kmh SE 17.4 mph28.0 kmh 30.42 in1030.1 mb 0.00 in0.0 mm 0.00 in0.0 mm 0.00 in0.0 mm
11:05 PM 47.8°F8.8°C 5.1°F-14.9°C 17% 8.5 mph SE13.7 kmh SE 15.0 mph24.1 kmh 30.42 in1030.1 mb 0.00 in0.0 mm 0.00 in0.0 mm 0.00 in0.0 mm
11:10 PM 47.7°F8.7°C 5.1°F-14.9°C 17% 9.8 mph SE15.8 kmh SE 15.0 mph24.1 kmh 30.42 in1030.1 mb 0.00 in0.0 mm 0.00 in0.0 mm 0.00 in0.0 mm
11:15 PM 47.7°F8.7°C 5.1°F-14.9°C 17% 7.9 mph SE12.7 kmh SE 17.4 mph28.0 kmh 30.42 in1030.1 mb 0.00 in0.0 mm 0.00 in0.0 mm 0.00 in0.0 mm
11:20 PM 47.7°F8.7°C 4.8°F-15.1°C 17% 10.0 mph SE16.1 kmh SE 17.4 mph28.0 kmh 30.42 in1030.1 mb 0.00 in0.0 mm 0.00 in0.0 mm 0.00 in0.0 mm
11:25 PM 47.7°F8.7°C 3.7°F-15.7°C 16% 7.7 mph SE12.4 kmh SE 15.0 mph24.1 kmh 30.42 in1030.1 mb 0.00 in0.0 mm 0.00 in0.0 mm 0.00 in0.0 mm
11:30 PM 47.7°F8.7°C 3.7°F-15.7°C 16% 6.4 mph SE10.3 kmh SE 12.3 mph19.8 kmh 30.42 in1030.1 mb 0.00 in0.0 mm 0.00 in0.0 mm 0.00 in0.0 mm
11:35 PM 47.7°F8.7°C 3.1°F-16.1°C 16% 7.8 mph SE12.6 kmh SE 15.0 mph24.1 kmh 30.42 in1030.1 mb 0.00 in0.0 mm 0.00 in0.0 mm 0.00 in0.0 mm
11:40 PM 47.7°F8.7°C 2.4°F-16.4°C 15% 7.6 mph SE12.2 kmh SE 17.4 mph28.0 kmh 30.42 in1030.1 mb 0.00 in0.0 mm 0.00 in0.0 mm 0.00 in0.0 mm
11:45 PM 47.7°F8.7°C 1.9°F-16.7°C 15% 6.7 mph SE10.8 kmh SE 15.0 mph24.1 kmh 30.42 in1030.1 mb 0.00 in0.0 mm 0.00 in0.0 mm 0.00 in0.0 mm
11:50 PM 47.5°F8.6°C 1.3°F-17.1°C 14% 5.8 mph SE9.3 kmh SE 15.0 mph24.1 kmh 30.42 in1030.1 mb 0.00 in0.0 mm 0.00 in0.0 mm 0.00 in0.0 mm
11:55 PM 47.5°F8.6°C 0.4°F-17.6°C 14% 9.4 mph ESE15.1 kmh ESE 17.4 mph28.0 kmh 30.42 in1030.1 mb 0.00 in0.0 mm 0.00 in0.0 mm 0.00 in0.0 mm